Powell, WY (82435)

11:55 PM MDT on August 28, 2016 (GMT -0600)
| | Change Station

Elev -9999 ft 0.00 °N, 0.00 °E | Updated

Clear
Clear
65 °F
Feels Like 65 °F
N
10
Wind Variable Wind from NW
Gusts 14 mph

Today
High -- | Low -- °F
--% Chance of Precip.
Yesterday
High -- | Low -- °F
Precip. -- in
Pressure 30.24 in
Visibility 10.0 miles
Clouds Clear
Dew Point 34 °F
Humidity 32%
Rainfall --
Snow Depth Not available.
6:33 AM 7:58 PM
Waning Crescent, 10% visible
METAR KCOD 290535Z AUTO 32003KT 10SM CLR 19/00 A3024 RMK AO1
Pressure 30.24 in
Visibility 10.0 miles
Clouds Clear
Dew Point 34 °F
Humidity 32%
Rainfall --
Snow Depth Not available.
6:33 AM 7:58 PM
Waning Crescent, 10% visible
METAR KCOD 290535Z AUTO 32003KT 10SM CLR 19/00 A3024 RMK AO1

10-Day Weather Forecast

Almanac

Astronomy

Aug. 28, 2016 Rise Set
Actual Time
Civil Twilight
Nautical Twilight
Astronomical Twilight
Moon
Length of Visible Light
Length of Day
Tomorrow will be .
, % of the Moon is Illuminated

Today's Extremes

State Highs State Lows

Community

WunderPhotos

Upload Photos

1,935,800 photos uploaded!

WunderBlog® & News

Nearby

Air Quality

  Air Quality AQ Index Pollutant
Not available.

Snow Depth

Station Depth Elevation

Earthquake Activity

City Distance Mag. Time & Date
Minimum magnitude displayed is 2.5.

Coastal Water Temperatures

Place Temperature

Stations

Nearby Weather Stations

Station Location Temp. Windchill Dew Point Humidity Wind Precip. Elev Updated Type
                   

Watches & Warnings

There are currently no watches in effect.